Time;durP1;ratioP1;P1;durP2;ratioP2;P2;SDS_P1;SDS_P2;PMS_P1;PMS_P2;Temp;Humidity;BMP_temperature;BMP_pressure;BME280_temperature;BME280_humidity;BME280_pressure;Samples;Min_cycle;Max_cycle;Signal;HPM_P1;HPM_P2
2022/04/24 00:01:32;;;;;;;8.20;4.47;;;;;;;12.09;57.68;94465.41;4963280;28;20230;-63
2022/04/24 00:03:57;;;;;;;8.43;3.47;;;;;;;12.11;58.14;94463.44;4969222;28;20232;-62
2022/04/24 00:06:23;;;;;;;8.52;3.65;;;;;;;12.06;58.10;94463.94;4973295;28;20208;-62
2022/04/24 00:08:49;;;;;;;11.82;4.53;;;;;;;12.05;58.29;94456.19;4976885;28;20211;-62
2022/04/24 00:11:15;;;;;;;7.43;4.73;;;;;;;11.98;58.78;94468.44;4970283;28;20235;-62
2022/04/24 00:13:42;;;;;;;9.13;4.57;;;;;;;11.98;58.83;94455.28;4970557;28;20224;-62
2022/04/24 00:16:10;;;;;;;9.02;4.78;;;;;;;11.88;59.19;94461.56;4970414;28;20227;-62
2022/04/24 00:18:38;;;;;;;9.07;4.07;;;;;;;11.97;59.00;94464.97;4967526;28;20235;-62
2022/04/24 00:21:04;;;;;;;9.82;4.30;;;;;;;12.01;58.81;94468.09;4989771;28;20261;-62
2022/04/24 00:23:31;;;;;;;11.27;4.77;;;;;;;11.94;58.94;94473.22;4966172;28;20244;-62
2022/04/24 00:25:57;;;;;;;8.73;4.63;;;;;;;11.99;58.90;94470.09;4964711;28;20216;-62
2022/04/24 00:28:22;;;;;;;7.77;4.13;;;;;;;11.93;59.13;94462.88;4961431;28;20300;-62
2022/04/24 00:30:48;;;;;;;12.23;4.37;;;;;;;11.83;59.23;94470.97;4948070;28;20234;-62
2022/04/24 00:33:13;;;;;;;9.03;4.33;;;;;;;11.78;59.45;94466.19;4972721;28;20209;-62
2022/04/24 00:35:39;;;;;;;6.37;4.10;;;;;;;11.84;59.29;94473.44;4962775;28;20228;-63
2022/04/24 00:38:05;;;;;;;9.70;4.10;;;;;;;11.93;58.82;94481.31;4928541;28;20235;-62
2022/04/24 00:40:30;;;;;;;7.30;3.87;;;;;;;11.84;58.97;94476.06;4950185;28;20228;-62
2022/04/24 00:42:56;;;;;;;8.73;3.93;;;;;;;11.86;58.64;94471.44;4971070;28;20228;-62
2022/04/24 00:45:21;;;;;;;9.33;4.17;;;;;;;11.60;59.75;94473.53;4957420;28;20263;-62
2022/04/24 00:47:47;;;;;;;8.60;4.55;;;;;;;11.60;59.82;94463.84;4971392;28;20203;-62
2022/04/24 00:50:13;;;;;;;8.23;4.50;;;;;;;11.55;59.82;94468.78;4979219;28;20228;-62
2022/04/24 00:52:39;;;;;;;6.88;3.45;;;;;;;11.50;60.09;94463.22;4975612;28;20227;-62
2022/04/24 00:55:05;;;;;;;7.23;3.60;;;;;;;11.56;59.61;94465.16;4987705;28;20362;-62
2022/04/24 00:57:31;;;;;;;8.03;4.20;;;;;;;11.42;59.86;94476.41;4970082;28;20215;-62
2022/04/24 00:59:56;;;;;;;9.82;4.25;;;;;;;11.35;60.54;94478.88;4971549;28;20203;-62
2022/04/24 01:02:22;;;;;;;8.30;4.33;;;;;;;11.40;60.49;94479.19;4978829;28;20232;-62
2022/04/24 01:04:47;;;;;;;8.33;4.00;;;;;;;11.37;60.56;94476.09;4960536;28;20242;-62
2022/04/24 01:07:13;;;;;;;7.57;3.83;;;;;;;11.46;59.96;94480.34;4971080;28;20224;-62
2022/04/24 01:09:39;;;;;;;5.13;3.57;;;;;;;11.49;59.89;94485.25;4967726;28;20243;-62
2022/04/24 01:12:06;;;;;;;8.98;4.80;;;;;;;11.37;60.49;94481.38;4966886;28;20251;-60
2022/04/24 01:14:32;;;;;;;8.17;4.73;;;;;;;11.40;59.95;94476.56;4967447;28;20228;-63
2022/04/24 01:16:59;;;;;;;8.17;4.47;;;;;;;11.21;60.75;94479.59;4965979;28;20237;-63
2022/04/24 01:19:25;;;;;;;8.30;4.47;;;;;;;11.27;60.62;94486.81;4961691;28;20265;-60
2022/04/24 01:21:51;;;;;;;8.25;4.30;;;;;;;11.16;61.01;94485.34;4964817;28;20251;-61
2022/04/24 01:24:20;;;;;;;8.23;4.77;;;;;;;11.21;60.84;94496.19;4949138;28;20239;-62
2022/04/24 01:26:45;;;;;;;12.77;4.97;;;;;;;11.16;61.23;94490.63;4949102;28;20287;-63
2022/04/24 01:29:11;;;;;;;8.10;4.38;;;;;;;11.13;61.17;94498.84;4946367;28;20420;-62
2022/04/24 01:31:37;;;;;;;11.37;4.30;;;;;;;11.08;61.34;94495.91;4955393;28;20319;-62
2022/04/24 01:34:03;;;;;;;7.77;4.27;;;;;;;11.08;61.49;94498.53;4969844;28;20280;-62
2022/04/24 01:36:28;;;;;;;8.93;4.63;;;;;;;10.96;61.98;94492.81;4938353;28;20225;-62
2022/04/24 01:38:54;;;;;;;7.57;4.40;;;;;;;10.93;62.21;94498.41;4972703;28;20332;-62
2022/04/24 01:41:19;;;;;;;8.63;4.77;;;;;;;10.81;62.78;94507.63;4948779;28;20224;-62
2022/04/24 01:43:46;;;;;;;9.67;4.50;;;;;;;10.87;62.39;94500.88;4944966;28;20244;-62
2022/04/24 01:46:13;;;;;;;7.77;4.40;;;;;;;10.84;62.39;94502.03;4946456;28;20229;-62
2022/04/24 01:48:38;;;;;;;7.17;4.10;;;;;;;10.84;62.05;94512.53;4943739;28;20228;-62
2022/04/24 01:51:06;;;;;;;9.27;4.30;;;;;;;10.67;62.42;94513.56;4944389;28;20207;-62
2022/04/24 01:53:32;;;;;;;11.53;4.63;;;;;;;10.80;62.19;94513.88;4957358;28;20371;-62
2022/04/24 01:56:03;;;;;;;10.53;4.50;;;;;;;10.91;61.99;94512.72;4954787;28;20224;-61
2022/04/24 01:58:30;;;;;;;9.23;3.90;;;;;;;10.97;61.52;94520.75;4959958;28;20228;-61
2022/04/24 02:00:55;;;;;;;6.43;4.23;;;;;;;10.88;61.93;94513.88;4961441;28;21287;-61
2022/04/24 02:03:22;;;;;;;7.33;4.20;;;;;;;10.83;62.14;94513.53;4965118;28;20210;-61
2022/04/24 02:05:48;;;;;;;6.80;3.80;;;;;;;10.79;61.69;94513.03;4956667;28;20204;-62
2022/04/24 02:08:14;;;;;;;10.02;4.60;;;;;;;10.79;62.04;94517.47;4964723;28;20234;-62
2022/04/24 02:10:40;;;;;;;5.57;3.53;;;;;;;10.77;61.88;94519.44;4973576;28;20238;-62
2022/04/24 02:13:05;;;;;;;7.72;3.83;;;;;;;10.85;61.74;94516.81;4973435;28;20259;-62
2022/04/24 02:15:31;;;;;;;7.47;4.22;;;;;;;10.72;62.02;94512.06;4978279;28;20225;-62
2022/04/24 02:17:57;;;;;;;6.33;4.10;;;;;;;10.71;61.92;94517.47;4958614;28;20212;-61
2022/04/24 02:20:23;;;;;;;9.50;4.20;;;;;;;10.69;62.28;94515.03;4980065;28;20258;-61
2022/04/24 02:22:49;;;;;;;7.87;4.33;;;;;;;10.53;62.83;94520.25;4966769;28;20233;-62
2022/04/24 02:25:15;;;;;;;10.33;4.20;;;;;;;10.56;63.15;94523.41;4968027;28;20307;-62
2022/04/24 02:27:41;;;;;;;7.10;4.20;;;;;;;10.32;63.88;94520.75;4967570;28;20235;-62
2022/04/24 02:30:07;;;;;;;10.02;4.63;;;;;;;10.43;63.58;94515.19;4968792;28;20228;-62
2022/04/24 02:32:33;;;;;;;10.68;4.50;;;;;;;10.51;63.12;94512.56;4972996;28;20221;-62
2022/04/24 02:34:59;;;;;;;11.30;4.68;;;;;;;10.46;63.42;94514.84;4975499;28;20237;-62
2022/04/24 02:37:25;;;;;;;8.47;4.30;;;;;;;10.47;63.03;94521.72;4973681;28;20533;-62
2022/04/24 02:39:51;;;;;;;7.50;4.60;;;;;;;10.47;62.90;94516.47;4962158;28;20228;-61
2022/04/24 02:42:17;;;;;;;10.82;4.43;;;;;;;10.50;62.84;94518.78;4980156;28;20214;-62
2022/04/24 02:44:43;;;;;;;11.52;5.05;;;;;;;10.57;62.52;94517.16;4961834;28;20195;-62
2022/04/24 02:47:08;;;;;;;10.65;4.93;;;;;;;10.59;62.43;94517.81;4990598;28;20224;-62
2022/04/24 02:49:34;;;;;;;9.77;5.60;;;;;;;10.53;62.37;94509.75;4953441;28;20224;-62
2022/04/24 02:51:59;;;;;;;11.17;7.27;;;;;;;10.37;63.18;94507.91;4974291;28;20235;-66
2022/04/24 02:54:25;;;;;;;9.68;6.28;;;;;;;10.35;63.26;94509.91;4970997;28;20208;-66
2022/04/24 02:56:50;;;;;;;10.05;5.45;;;;;;;10.38;63.20;94514.84;4975075;28;20501;-66
2022/04/24 02:59:16;;;;;;;14.20;9.63;;;;;;;10.30;63.79;94518.28;4978968;28;20231;-59
2022/04/24 03:01:42;;;;;;;15.10;9.60;;;;;;;10.39;63.58;94516.47;4971104;28;20326;-62
2022/04/24 03:04:08;;;;;;;11.37;7.80;;;;;;;10.25;63.70;94525.78;4974885;28;20247;-62
2022/04/24 03:06:33;;;;;;;11.23;6.73;;;;;;;10.20;64.01;94528.06;4975235;28;20294;-60
2022/04/24 03:08:59;;;;;;;13.40;6.63;;;;;;;9.97;64.58;94533.13;4987249;28;20268;-61
2022/04/24 03:11:25;;;;;;;11.63;7.00;;;;;;;10.02;64.70;94535.25;4971608;28;20255;-60
2022/04/24 03:13:51;;;;;;;14.20;7.65;;;;;;;9.96;64.76;94536.72;4968527;28;20216;-65
2022/04/24 03:16:17;;;;;;;10.27;6.47;;;;;;;10.13;63.95;94546.31;4972608;28;20229;-60
2022/04/24 03:18:42;;;;;;;10.73;6.60;;;;;;;10.02;64.01;94543.94;4977597;28;20217;-58
2022/04/24 03:21:07;;;;;;;10.33;6.30;;;;;;;10.01;64.07;94544.94;4972906;28;20204;-63
2022/04/24 03:23:33;;;;;;;7.33;5.27;;;;;;;9.93;64.07;94552.78;4973019;28;20223;-65
2022/04/24 03:25:59;;;;;;;12.37;5.90;;;;;;;9.99;64.21;94554.78;4990468;28;20561;-59
2022/04/24 03:28:24;;;;;;;12.70;6.17;;;;;;;10.16;63.54;94550.41;4980884;28;20212;-63
2022/04/24 03:30:49;;;;;;;9.07;6.28;;;;;;;10.17;63.34;94562.56;4973501;28;20274;-63
2022/04/24 03:33:15;;;;;;;10.00;5.65;;;;;;;10.15;63.58;94560.06;4971812;28;20216;-67
2022/04/24 03:35:41;;;;;;;11.80;5.77;;;;;;;9.97;64.03;94556.75;4980376;28;20228;-66
2022/04/24 03:38:06;;;;;;;11.20;5.53;;;;;;;10.04;63.93;94568.25;4975162;28;20224;-66
2022/04/24 03:40:32;;;;;;;10.50;5.53;;;;;;;10.02;64.20;94564.16;4969975;28;20224;-61
2022/04/24 03:42:57;;;;;;;9.02;5.18;;;;;;;10.00;64.23;94566.94;4977002;28;20220;-62
2022/04/24 03:45:23;;;;;;;9.57;5.90;;;;;;;10.16;63.75;94569.63;4974878;28;20222;-66
2022/04/24 03:47:48;;;;;;;9.47;5.33;;;;;;;10.12;63.89;94567.47;4976468;28;20204;-66
2022/04/24 03:50:14;;;;;;;7.77;5.33;;;;;;;10.04;64.06;94565.63;4964160;28;20232;-67
2022/04/24 03:52:40;;;;;;;8.98;5.50;;;;;;;10.17;63.72;94559.94;4968209;28;20224;-65
2022/04/24 03:55:06;;;;;;;8.25;5.82;;;;;;;10.26;63.21;94560.75;4959442;28;20224;-65
2022/04/24 03:57:33;;;;;;;8.43;5.30;;;;;;;10.26;63.33;94558.13;4965470;28;20285;-63
2022/04/24 03:59:59;;;;;;;10.60;5.40;;;;;;;10.30;63.31;94559.50;4966785;28;20200;-60
2022/04/24 04:02:24;;;;;;;8.30;5.83;;;;;;;10.28;63.50;94564.09;4983991;28;20304;-60
2022/04/24 04:04:50;;;;;;;9.27;5.43;;;;;;;10.29;63.62;94552.59;4976255;28;20220;-61
2022/04/24 04:07:16;;;;;;;10.20;5.93;;;;;;;10.32;63.96;94558.38;4967616;28;20232;-60
2022/04/24 04:09:41;;;;;;;9.07;5.10;;;;;;;10.29;64.01;94560.47;4965295;28;20283;-60
2022/04/24 04:12:07;;;;;;;9.83;5.50;;;;;;;10.34;63.77;94563.44;4974755;28;20200;-59
2022/04/24 04:14:33;;;;;;;11.67;5.67;;;;;;;10.31;63.54;94564.56;4970201;28;20239;-59
2022/04/24 04:16:58;;;;;;;10.23;5.85;;;;;;;10.18;63.89;94558.13;4977811;28;20255;-59
2022/04/24 04:19:24;;;;;;;10.03;5.77;;;;;;;10.23;64.28;94563.72;4987733;28;20224;-58
2022/04/24 04:21:49;;;;;;;12.67;5.70;;;;;;;10.30;63.52;94562.13;4980856;28;20327;-58
2022/04/24 04:24:15;;;;;;;12.10;5.40;;;;;;;10.32;63.56;94568.06;4983316;28;20205;-58
2022/04/24 04:26:40;;;;;;;9.10;5.37;;;;;;;10.34;63.59;94571.31;4975960;28;20224;-64
2022/04/24 04:29:06;;;;;;;7.97;5.17;;;;;;;10.50;63.04;94562.66;4977091;28;20263;-64
2022/04/24 04:31:32;;;;;;;9.38;5.28;;;;;;;10.65;62.34;94565.47;4965115;28;20272;-64
2022/04/24 04:33:57;;;;;;;11.02;5.95;;;;;;;10.55;63.05;94576.94;4979998;28;20310;-64
2022/04/24 04:36:23;;;;;;;7.40;4.57;;;;;;;10.53;62.93;94572.84;4968255;28;20220;-62
2022/04/24 04:38:48;;;;;;;7.17;4.47;;;;;;;10.68;62.64;94571.22;4985749;28;20219;-62
2022/04/24 04:41:14;;;;;;;9.07;4.78;;;;;;;10.72;62.53;94576.97;4965971;28;20277;-62
2022/04/24 04:43:39;;;;;;;9.13;4.63;;;;;;;10.83;62.33;94574.03;4975104;28;20330;-58
2022/04/24 04:46:04;;;;;;;6.00;4.43;;;;;;;10.86;62.15;94576.31;4974928;28;20215;-60
2022/04/24 04:48:30;;;;;;;9.68;5.57;;;;;;;10.88;62.16;94582.25;4971420;28;20216;-59
2022/04/24 04:50:56;;;;;;;9.55;5.45;;;;;;;10.96;61.84;94582.25;4969748;28;20217;-66
2022/04/24 04:53:22;;;;;;;7.65;5.68;;;;;;;11.01;61.14;94589.63;4974106;28;20320;-66
2022/04/24 04:55:48;;;;;;;7.00;4.67;;;;;;;11.00;61.20;94583.53;4966138;28;20252;-67
2022/04/24 04:58:13;;;;;;;8.57;5.68;;;;;;;11.04;60.67;94586.69;4991029;28;20231;-68
2022/04/24 05:00:39;;;;;;;7.60;5.28;;;;;;;11.12;60.66;94594.59;4969432;28;20228;-65
2022/04/24 05:03:04;;;;;;;10.13;5.20;;;;;;;11.13;60.83;94595.41;4967038;28;20221;-67
2022/04/24 05:05:30;;;;;;;9.68;5.30;;;;;;;11.25;59.95;94588.78;4969812;28;20228;-67
2022/04/24 05:07:55;;;;;;;7.30;5.30;;;;;;;11.30;59.77;94597.00;4973023;28;20231;-66
2022/04/24 05:10:21;;;;;;;6.30;4.47;;;;;;;11.30;60.08;94602.28;4974421;28;20227;-66
2022/04/24 05:12:46;;;;;;;6.88;2.92;;;;;;;11.44;58.96;94601.63;4978884;28;20231;-66
2022/04/24 05:15:13;;;;;;;6.00;3.05;;;;;;;11.52;58.50;94598.16;4969968;28;20665;-67
2022/04/24 05:17:40;;;;;;;5.10;3.30;;;;;;;11.68;58.01;94602.53;4956483;28;20315;-67
2022/04/24 05:20:07;;;;;;;6.20;3.28;;;;;;;11.85;57.66;94604.16;4972546;28;20359;-66
2022/04/24 05:22:32;;;;;;;6.80;3.05;;;;;;;11.74;57.45;94599.25;4964464;28;20238;-66
2022/04/24 05:24:58;;;;;;;7.70;3.50;;;;;;;11.81;57.33;94605.47;4965925;28;20227;-68
2022/04/24 05:27:23;;;;;;;3.80;2.58;;;;;;;11.90;57.39;94604.50;4967767;28;20254;-67
2022/04/24 05:29:49;;;;;;;4.77;2.90;;;;;;;12.00;56.78;94603.47;4971864;28;20246;-66
2022/04/24 05:32:15;;;;;;;6.80;2.60;;;;;;;12.03;56.76;94603.13;4977240;28;20228;-67
2022/04/24 05:34:40;;;;;;;5.80;2.80;;;;;;;12.10;56.49;94609.34;4971305;28;20231;-67
2022/04/24 05:37:06;;;;;;;6.50;2.93;;;;;;;12.06;56.82;94608.06;4991970;28;20238;-67
2022/04/24 05:39:31;;;;;;;5.67;2.67;;;;;;;12.15;56.73;94596.47;4973669;28;20293;-67
2022/04/24 05:41:57;;;;;;;7.90;3.30;;;;;;;12.20;56.99;94595.97;4972302;28;20219;-67
2022/04/24 05:44:22;;;;;;;4.70;2.78;;;;;;;12.31;56.93;94595.59;4986482;28;20224;-67
2022/04/24 05:46:48;;;;;;;5.65;3.40;;;;;;;12.36;56.91;94588.81;4971785;28;20228;-68
2022/04/24 05:49:13;;;;;;;5.80;3.13;;;;;;;12.44;57.11;94592.41;4984697;28;20227;-68
2022/04/24 05:51:39;;;;;;;10.27;4.18;;;;;;;12.46;56.82;94598.31;4969400;28;20230;-66
2022/04/24 05:54:05;;;;;;;5.95;3.85;;;;;;;12.48;57.10;94604.22;4971477;28;20298;-68
2022/04/24 05:56:31;;;;;;;5.72;3.55;;;;;;;12.59;56.70;94603.84;4967840;28;20311;-66
2022/04/24 05:58:56;;;;;;;7.22;3.72;;;;;;;12.69;56.35;94593.06;4961741;28;20232;-68
2022/04/24 06:01:22;;;;;;;4.55;3.35;;;;;;;12.73;56.43;94595.19;4963679;28;20252;-66
2022/04/24 06:03:48;;;;;;;5.60;4.10;;;;;;;12.68;56.97;94594.88;4997479;28;20219;-68
2022/04/24 06:06:13;;;;;;;5.22;3.80;;;;;;;12.73;56.59;94592.53;4969654;28;20264;-68
2022/04/24 06:08:39;;;;;;;4.50;3.67;;;;;;;12.84;56.40;94590.50;4966729;28;20221;-65
2022/04/24 06:11:05;;;;;;;6.03;4.05;;;;;;;12.82;56.29;94577.47;4953400;28;20225;-66
2022/04/24 06:13:30;;;;;;;9.30;3.70;;;;;;;12.89;55.91;94572.31;4961374;28;20220;-66
2022/04/24 06:15:57;;;;;;;6.53;4.30;;;;;;;12.91;56.20;94581.72;4967870;28;20234;-66
2022/04/24 06:18:29;;;;;;;6.97;4.05;;;;;;;12.94;56.52;94585.81;4974215;28;20203;-66
2022/04/24 06:20:55;;;;;;;6.53;3.85;;;;;;;13.03;55.64;94575.00;4979185;28;20235;-66
2022/04/24 06:23:21;;;;;;;5.75;3.65;;;;;;;13.11;55.78;94582.03;4982906;28;20294;-66
2022/04/24 06:25:47;;;;;;;5.93;3.70;;;;;;;13.23;55.53;94580.63;4986414;28;20266;-68
2022/04/24 06:28:13;;;;;;;6.25;3.63;;;;;;;13.23;55.67;94579.78;4971922;28;20235;-58
2022/04/24 06:30:42;;;;;;;7.07;3.50;;;;;;;13.27;55.14;94575.81;4980007;28;20231;-59
2022/04/24 06:33:11;;;;;;;5.78;3.40;;;;;;;13.40;54.86;94573.38;4970852;28;20282;-59
2022/04/24 06:35:37;;;;;;;5.43;3.10;;;;;;;13.43;55.14;94574.84;4967083;28;20228;-60
2022/04/24 06:38:03;;;;;;;5.63;3.13;;;;;;;13.51;54.35;94571.31;4969989;28;20219;-60
2022/04/24 06:40:28;;;;;;;6.30;3.40;;;;;;;13.61;54.09;94572.69;4961741;28;20228;-59
2022/04/24 06:42:59;;;;;;;3.47;2.60;;;;;;;13.68;53.57;94572.75;4978961;28;20220;-58
2022/04/24 06:45:27;;;;;;;4.80;2.90;;;;;;;13.69;53.54;94579.72;4964007;28;20205;-59
2022/04/24 06:47:58;;;;;;;5.75;3.42;;;;;;;13.80;53.33;94578.44;4981173;28;20216;-59
2022/04/24 06:50:25;;;;;;;5.90;3.00;;;;;;;13.85;53.35;94579.53;4964895;28;20224;-59
2022/04/24 06:53:02;;;;;;;4.28;3.00;;;;;;;13.86;53.03;94575.88;4972448;28;20232;-59
2022/04/24 06:55:31;;;;;;;5.75;2.80;;;;;;;13.96;52.65;94580.88;4977198;28;20230;-59
2022/04/24 06:57:58;;;;;;;4.25;2.58;;;;;;;13.98;52.51;94575.41;4969943;28;20233;-58
2022/04/24 07:00:25;;;;;;;5.28;2.92;;;;;;;14.05;52.42;94571.84;4980434;28;20205;-59
2022/04/24 07:02:50;;;;;;;10.90;3.33;;;;;;;14.17;52.32;94568.75;4968318;28;20218;-59
2022/04/24 07:05:16;;;;;;;7.68;3.25;;;;;;;14.19;52.47;94553.50;4970751;28;20216;-59
2022/04/24 07:07:42;;;;;;;4.20;3.00;;;;;;;14.30;52.39;94553.88;4979173;28;20240;-59
2022/04/24 07:10:08;;;;;;;4.82;2.92;;;;;;;14.37;52.08;94548.63;4986894;28;20223;-59
2022/04/24 07:12:48;;;;;;;4.35;3.05;;;;;;;14.46;51.80;94559.91;4970492;28;20215;-60
2022/04/24 07:15:13;;;;;;;6.00;3.15;;;;;;;14.55;52.06;94553.56;4980050;28;20238;-59
2022/04/24 07:17:41;;;;;;;5.85;3.25;;;;;;;14.46;52.04;94552.81;4975524;28;20264;-59
2022/04/24 07:20:08;;;;;;;6.28;2.75;;;;;;;14.56;52.22;94550.69;4962488;28;20270;-60
2022/04/24 07:22:47;;;;;;;5.35;2.78;;;;;;;14.52;52.02;94553.91;4976622;28;20229;-60
2022/04/24 07:25:18;;;;;;;4.57;2.97;;;;;;;14.63;51.83;94540.19;4981869;28;20224;-59
2022/04/24 07:27:44;;;;;;;3.78;2.58;;;;;;;14.73;51.34;94534.59;4970780;28;20230;-60
2022/04/24 07:30:14;;;;;;;5.38;2.72;;;;;;;14.88;50.58;94543.28;4947207;28;20720;-59
2022/04/24 07:32:40;;;;;;;6.65;2.67;;;;;;;14.92;50.50;94535.81;4979316;28;20259;-60
2022/04/24 07:35:09;;;;;;;8.45;3.20;;;;;;;15.04;49.42;94536.09;4982652;28;20223;-67
2022/04/24 07:37:34;;;;;;;4.13;2.50;;;;;;;15.06;49.37;94528.78;4964884;28;20232;-66
2022/04/24 07:40:00;;;;;;;5.10;2.72;;;;;;;15.06;50.48;94531.44;4967199;28;20223;-67
2022/04/24 07:42:26;;;;;;;2.90;1.98;;;;;;;15.13;49.44;94537.59;4975669;28;20281;-67
2022/04/24 07:44:51;;;;;;;4.22;2.15;;;;;;;15.22;48.85;94539.09;4959661;28;20196;-67
2022/04/24 07:47:17;;;;;;;6.18;2.63;;;;;;;15.25;48.94;94540.53;4978597;28;20219;-67
2022/04/24 07:49:42;;;;;;;6.82;2.42;;;;;;;15.31;49.73;94537.13;4973818;28;20220;-65
2022/04/24 07:52:08;;;;;;;4.43;2.30;;;;;;;15.52;46.96;94531.75;4980521;28;20253;-65
2022/04/24 07:54:33;;;;;;;5.72;2.50;;;;;;;15.36;47.51;94529.41;4975360;28;20350;-65
2022/04/24 07:56:59;;;;;;;6.05;2.92;;;;;;;15.41;49.71;94527.81;4983260;28;20214;-65
2022/04/24 07:59:24;;;;;;;5.20;2.40;;;;;;;15.50;48.91;94525.03;4979967;28;20231;-65
2022/04/24 08:01:51;;;;;;;5.30;2.50;;;;;;;15.62;48.65;94523.47;4978481;28;20236;-64
2022/04/24 08:04:17;;;;;;;3.65;2.38;;;;;;;15.65;47.58;94508.00;4981669;28;20283;-67
2022/04/24 08:06:43;;;;;;;4.70;2.20;;;;;;;15.82;46.98;94521.81;4982814;28;20252;-59
2022/04/24 08:09:08;;;;;;;5.30;2.72;;;;;;;15.79;48.75;94514.22;4963649;28;20244;-66
2022/04/24 08:11:34;;;;;;;3.45;2.05;;;;;;;15.89;47.04;94519.16;4980860;28;20250;-61
2022/04/24 08:13:59;;;;;;;4.95;2.20;;;;;;;15.91;47.33;94505.72;4970745;28;20231;-58
2022/04/24 08:16:26;;;;;;;7.10;2.45;;;;;;;16.05;45.98;94502.91;4974723;28;20259;-59
2022/04/24 08:18:52;;;;;;;4.65;2.10;;;;;;;16.08;45.24;94497.22;4971266;28;20425;-62
2022/04/24 08:21:18;;;;;;;5.47;2.35;;;;;;;16.19;45.85;94498.47;4982455;28;20216;-62
2022/04/24 08:23:44;;;;;;;5.35;2.20;;;;;;;16.34;46.28;94489.56;4972900;28;20204;-63
2022/04/24 08:26:10;;;;;;;4.85;2.72;;;;;;;16.41;46.36;94490.38;4970851;28;20225;-59
2022/04/24 08:28:36;;;;;;;5.18;2.75;;;;;;;16.49;45.61;94477.75;4976098;28;20267;-62
2022/04/24 08:31:02;;;;;;;5.05;3.55;;;;;;;16.54;45.83;94485.09;4972718;28;20280;-60
2022/04/24 08:33:28;;;;;;;5.65;3.85;;;;;;;16.50;46.24;94482.03;4977710;28;20323;-60
2022/04/24 08:35:53;;;;;;;5.45;3.13;;;;;;;16.76;44.54;94483.94;4979175;28;20247;-66
2022/04/24 08:38:19;;;;;;;5.57;2.88;;;;;;;16.63;44.86;94481.25;4973559;28;20239;-65
2022/04/24 08:40:46;;;;;;;5.25;2.95;;;;;;;16.79;44.89;94487.22;4969747;28;20545;-67
2022/04/24 08:43:13;;;;;;;5.38;3.08;;;;;;;16.95;45.81;94478.88;4966973;28;20224;-63
2022/04/24 08:45:42;;;;;;;5.32;3.00;;;;;;;16.92;45.42;94488.06;4960395;28;20227;-63
2022/04/24 08:48:08;;;;;;;6.55;2.83;;;;;;;17.01;44.72;94475.38;4966299;28;20250;-62
2022/04/24 08:50:33;;;;;;;3.53;2.30;;;;;;;17.09;43.49;94477.03;4982356;28;20524;-66
2022/04/24 08:52:59;;;;;;;4.95;2.10;;;;;;;17.20;43.22;94473.72;4976748;28;20231;-65
2022/04/24 08:55:30;;;;;;;4.85;2.00;;;;;;;17.17;43.33;94469.66;4956808;28;20278;-62
2022/04/24 08:57:56;;;;;;;3.78;1.85;;;;;;;17.22;42.74;94468.22;4954813;28;20248;-62
2022/04/24 09:00:22;;;;;;;3.83;2.15;;;;;;;17.19;43.21;94470.25;4957372;28;20251;-62
2022/04/24 09:02:48;;;;;;;6.75;2.45;;;;;;;17.30;44.12;94462.69;4975467;28;20247;-60
2022/04/24 09:05:14;;;;;;;2.75;2.15;;;;;;;17.41;44.39;94459.41;4973837;28;20254;-64
2022/04/24 09:07:43;;;;;;;2.95;2.25;;;;;;;17.50;43.67;94447.50;4966533;28;20699;-66
2022/04/24 09:10:11;;;;;;;5.20;2.05;;;;;;;17.68;43.17;94460.16;4970221;28;20223;-64
2022/04/24 09:12:38;;;;;;;6.10;2.03;;;;;;;17.82;43.24;94447.66;4966025;28;20216;-60
2022/04/24 09:15:05;;;;;;;4.15;1.98;;;;;;;17.92;42.13;94442.72;4979458;28;20207;-59
2022/04/24 09:17:35;;;;;;;6.20;2.15;;;;;;;18.07;41.70;94447.78;4984084;28;20235;-60
2022/04/24 09:20:15;;;;;;;7.07;2.38;;;;;;;18.20;41.12;94431.75;4966646;28;20220;-61
2022/04/24 09:22:40;;;;;;;7.50;2.28;;;;;;;18.27;41.29;94427.19;4966638;28;20228;-62
2022/04/24 09:25:07;;;;;;;4.97;2.47;;;;;;;18.40;41.38;94431.63;4967915;28;20279;-63
2022/04/24 09:27:34;;;;;;;3.88;1.67;;;;;;;18.51;40.71;94433.59;4979129;28;20268;-64
2022/04/24 09:30:04;;;;;;;3.88;1.95;;;;;;;18.78;39.91;94433.44;4960354;28;20243;-68
2022/04/24 09:32:32;;;;;;;3.72;2.00;;;;;;;19.05;41.03;94428.69;4977848;28;20232;-63
2022/04/24 09:34:57;;;;;;;4.25;2.25;;;;;;;19.16;39.25;94429.84;4969285;28;20233;-61
2022/04/24 09:37:24;;;;;;;4.93;1.98;;;;;;;19.05;39.23;94419.91;4969084;28;20312;-61
2022/04/24 09:39:50;;;;;;;3.65;2.00;;;;;;;19.09;39.36;94416.59;4967032;28;20247;-61
2022/04/24 09:42:17;;;;;;;4.90;1.88;;;;;;;19.26;39.45;94414.16;4964502;28;20217;-61
2022/04/24 09:44:46;;;;;;;1.70;1.45;;;;;;;19.43;38.45;94417.06;4976916;28;20368;-62
2022/04/24 09:47:13;;;;;;;5.95;1.65;;;;;;;19.53;37.99;94417.38;4980432;28;20224;-62
2022/04/24 09:49:41;;;;;;;4.50;1.85;;;;;;;19.71;37.69;94410.44;4952144;28;20306;-61
2022/04/24 09:52:14;;;;;;;3.95;2.00;;;;;;;19.82;38.56;94405.16;4983974;28;20231;-61
2022/04/24 09:54:43;;;;;;;3.13;2.08;;;;;;;19.93;37.87;94402.78;4971180;28;20243;-62
2022/04/24 09:57:09;;;;;;;5.32;2.33;;;;;;;19.98;38.64;94395.72;4984175;28;20212;-62
2022/04/24 09:59:41;;;;;;;4.28;1.70;;;;;;;20.17;38.92;94393.03;4952852;28;20308;-62
2022/04/24 10:02:08;;;;;;;5.53;2.30;;;;;;;20.30;38.31;94389.38;4967266;28;20228;-62
2022/04/24 10:04:35;;;;;;;4.88;2.08;;;;;;;20.43;37.02;94381.97;4960446;28;20216;-62
2022/04/24 10:07:07;;;;;;;3.17;1.67;;;;;;;20.57;36.54;94387.16;4974364;28;20228;-61
2022/04/24 10:09:39;;;;;;;4.50;1.90;;;;;;;20.58;36.66;94373.56;4969277;28;20211;-62
2022/04/24 10:12:25;;;;;;;4.28;2.03;;;;;;;20.87;35.77;94374.53;4975444;28;20204;-64
2022/04/24 10:14:56;;;;;;;3.95;2.00;;;;;;;21.02;35.43;94365.25;4982894;28;20211;-62
2022/04/24 10:17:34;;;;;;;4.28;1.67;;;;;;;21.18;34.75;94367.22;4987881;28;20282;-64
2022/04/24 10:20:18;;;;;;;4.90;1.77;;;;;;;21.28;34.40;94359.44;4960090;28;20243;-59
2022/04/24 10:22:47;;;;;;;6.10;2.10;;;;;;;21.29;34.34;94352.22;4981665;28;20264;-64
2022/04/24 10:25:17;;;;;;;3.58;1.92;;;;;;;21.41;34.68;94361.09;4974711;28;20279;-65
2022/04/24 10:27:43;;;;;;;3.10;1.92;;;;;;;21.61;35.44;94359.88;4971790;28;20232;-64
2022/04/24 10:30:20;;;;;;;3.92;2.03;;;;;;;21.64;35.62;94356.72;4977885;28;20240;-64
2022/04/24 10:32:48;;;;;;;5.93;2.28;;;;;;;21.64;34.32;94348.69;4990984;28;20231;-64
2022/04/24 10:35:18;;;;;;;6.82;2.20;;;;;;;21.85;34.36;94356.06;4969345;28;20362;-64
2022/04/24 10:37:45;;;;;;;3.40;2.00;;;;;;;21.77;33.47;94353.78;4967442;28;20227;-64
2022/04/24 10:40:16;;;;;;;7.13;2.40;;;;;;;21.84;34.04;94343.75;4955405;28;20224;-65
2022/04/24 10:42:43;;;;;;;7.05;2.67;;;;;;;22.00;33.58;94340.31;4957714;28;20249;-64
2022/04/24 10:45:10;;;;;;;3.85;2.00;;;;;;;21.97;33.59;94337.28;4965304;28;20208;-65
2022/04/24 10:47:42;;;;;;;6.90;2.42;;;;;;;22.24;33.31;94332.22;4945914;28;20250;-64
2022/04/24 10:50:09;;;;;;;5.40;2.15;;;;;;;22.56;33.85;94331.66;4956417;28;20304;-60
2022/04/24 10:52:39;;;;;;;4.75;2.00;;;;;;;22.73;32.42;94327.13;4976616;28;20359;-64
2022/04/24 10:55:16;;;;;;;4.70;1.98;;;;;;;22.74;32.59;94323.38;4958272;28;20229;-67
2022/04/24 10:58:03;;;;;;;4.35;2.00;;;;;;;22.64;31.91;94325.91;4948933;28;20230;-66
2022/04/24 11:00:38;;;;;;;2.55;1.80;;;;;;;22.80;32.44;94318.91;4997685;28;20212;-63
2022/04/24 11:03:15;;;;;;;3.53;2.00;;;;;;;22.95;31.90;94323.72;4970370;28;20204;-63
2022/04/24 11:05:47;;;;;;;2.72;1.77;;;;;;;22.90;31.89;94327.91;4986811;28;20238;-64
2022/04/24 11:08:20;;;;;;;3.95;2.00;;;;;;;23.22;32.51;94319.28;4976202;28;20286;-65
2022/04/24 11:10:47;;;;;;;4.53;1.80;;;;;;;23.42;30.83;94326.00;4977158;28;20239;-65
2022/04/24 11:13:20;;;;;;;6.03;2.05;;;;;;;23.06;30.48;94325.50;4959929;28;20251;-65
2022/04/24 11:15:47;;;;;;;4.72;1.83;;;;;;;23.11;29.97;94314.84;4960178;28;20225;-65
2022/04/24 11:18:27;;;;;;;3.45;1.90;;;;;;;23.17;30.51;94308.50;4951427;28;20212;-65
2022/04/24 11:21:03;;;;;;;4.50;1.80;;;;;;;23.44;30.13;94300.56;4959227;28;20227;-67
2022/04/24 11:23:38;;;;;;;2.92;1.75;;;;;;;23.45;29.88;94293.31;4973735;28;20224;-66
2022/04/24 11:26:06;;;;;;;5.88;1.75;;;;;;;23.50;29.38;94290.69;4964906;28;20226;-66
2022/04/24 11:28:33;;;;;;;5.95;1.88;;;;;;;23.51;28.96;94292.31;4971476;28;20270;-65
2022/04/24 11:31:09;;;;;;;4.50;2.00;;;;;;;23.64;29.01;94278.50;4972852;28;20235;-65